sensor_id;sensor_type;location;lat;lon;timestamp;temperature;humidity
28244;DHT22;15510;52.512;13.300;2024-03-02T00:00:20;9.80;99.90
28244;DHT22;15510;52.512;13.300;2024-03-02T00:02:48;9.70;99.90
28244;DHT22;15510;52.512;13.300;2024-03-02T00:05:21;9.80;99.90
28244;DHT22;15510;52.512;13.300;2024-03-02T00:07:55;9.80;99.90
28244;DHT22;15510;52.512;13.300;2024-03-02T00:10:23;9.80;99.90
28244;DHT22;15510;52.512;13.300;2024-03-02T00:13:00;9.80;99.90
28244;DHT22;15510;52.512;13.300;2024-03-02T00:15:47;9.80;99.90
28244;DHT22;15510;52.512;13.300;2024-03-02T00:18:34;9.80;99.90
28244;DHT22;15510;52.512;13.300;2024-03-02T00:21:03;9.80;99.90
28244;DHT22;15510;52.512;13.300;2024-03-02T00:23:31;9.80;99.90
28244;DHT22;15510;52.512;13.300;2024-03-02T00:26:00;9.80;99.90
28244;DHT22;15510;52.512;13.300;2024-03-02T00:28:37;9.80;99.90
28244;DHT22;15510;52.512;13.300;2024-03-02T00:31:09;9.80;99.90
28244;DHT22;15510;52.512;13.300;2024-03-02T00:36:09;9.70;99.90
28244;DHT22;15510;52.512;13.300;2024-03-02T00:38:55;9.70;99.90
28244;DHT22;15510;52.512;13.300;2024-03-02T00:41:27;9.70;99.90
28244;DHT22;15510;52.512;13.300;2024-03-02T00:44:03;9.70;99.90
28244;DHT22;15510;52.512;13.300;2024-03-02T00:46:40;9.60;99.90
28244;DHT22;15510;52.512;13.300;2024-03-02T00:49:26;9.60;99.90
28244;DHT22;15510;52.512;13.300;2024-03-02T00:51:56;9.60;99.90
28244;DHT22;15510;52.512;13.300;2024-03-02T00:54:25;9.60;99.90
28244;DHT22;15510;52.512;13.300;2024-03-02T00:56:52;9.70;99.90
28244;DHT22;15510;52.512;13.300;2024-03-02T00:59:24;9.60;99.90
28244;DHT22;15510;52.512;13.300;2024-03-02T01:01:50;9.60;99.90
28244;DHT22;15510;52.512;13.300;2024-03-02T01:04:19;9.50;99.90
28244;DHT22;15510;52.512;13.300;2024-03-02T01:06:45;9.50;99.90
28244;DHT22;15510;52.512;13.300;2024-03-02T01:09:14;9.50;99.90
28244;DHT22;15510;52.512;13.300;2024-03-02T01:11:45;9.50;99.90
28244;DHT22;15510;52.512;13.300;2024-03-02T01:14:14;9.50;99.90
28244;DHT22;15510;52.512;13.300;2024-03-02T01:16:41;9.50;99.90
28244;DHT22;15510;52.512;13.300;2024-03-02T01:19:07;9.50;99.90
28244;DHT22;15510;52.512;13.300;2024-03-02T01:21:33;9.50;99.90
28244;DHT22;15510;52.512;13.300;2024-03-02T01:23:58;9.40;99.90
28244;DHT22;15510;52.512;13.300;2024-03-02T01:26:27;9.40;99.90
28244;DHT22;15510;52.512;13.300;2024-03-02T01:29:02;9.30;99.90
28244;DHT22;15510;52.512;13.300;2024-03-02T01:31:27;9.30;99.90
28244;DHT22;15510;52.512;13.300;2024-03-02T01:33:53;9.30;99.90
28244;DHT22;15510;52.512;13.300;2024-03-02T01:36:19;9.30;99.90
28244;DHT22;15510;52.512;13.300;2024-03-02T01:38:44;9.30;99.90
28244;DHT22;15510;52.512;13.300;2024-03-02T01:41:10;9.30;99.90
28244;DHT22;15510;52.512;13.300;2024-03-02T01:43:37;9.30;99.90
28244;DHT22;15510;52.512;13.300;2024-03-02T01:46:03;9.30;99.90
28244;DHT22;15510;52.512;13.300;2024-03-02T01:48:28;9.30;99.90
28244;DHT22;15510;52.512;13.300;2024-03-02T01:50:54;9.30;99.90
28244;DHT22;15510;52.512;13.300;2024-03-02T01:53:20;9.30;99.90
28244;DHT22;15510;52.512;13.300;2024-03-02T01:55:46;9.30;99.90
28244;DHT22;15510;52.512;13.300;2024-03-02T01:58:12;9.30;99.90
28244;DHT22;15510;52.512;13.300;2024-03-02T02:00:38;9.30;99.90
28244;DHT22;15510;52.512;13.300;2024-03-02T02:03:03;9.30;99.90
28244;DHT22;15510;52.512;13.300;2024-03-02T02:05:29;9.20;99.90
28244;DHT22;15510;52.512;13.300;2024-03-02T02:07:55;9.20;99.90
28244;DHT22;15510;52.512;13.300;2024-03-02T02:10:24;9.20;99.90
28244;DHT22;15510;52.512;13.300;2024-03-02T02:12:49;9.10;99.90
28244;DHT22;15510;52.512;13.300;2024-03-02T02:15:23;9.20;99.90
28244;DHT22;15510;52.512;13.300;2024-03-02T02:17:48;9.20;99.90
28244;DHT22;15510;52.512;13.300;2024-03-02T02:20:14;9.20;99.90
28244;DHT22;15510;52.512;13.300;2024-03-02T02:22:40;9.20;99.90
28244;DHT22;15510;52.512;13.300;2024-03-02T02:25:06;9.30;99.90
28244;DHT22;15510;52.512;13.300;2024-03-02T02:27:31;9.30;99.90
28244;DHT22;15510;52.512;13.300;2024-03-02T02:29:57;9.30;99.90
28244;DHT22;15510;52.512;13.300;2024-03-02T02:32:23;9.30;99.90
28244;DHT22;15510;52.512;13.300;2024-03-02T02:34:52;9.30;99.90
28244;DHT22;15510;52.512;13.300;2024-03-02T02:37:18;9.30;99.90
28244;DHT22;15510;52.512;13.300;2024-03-02T02:39:44;9.30;99.90
28244;DHT22;15510;52.512;13.300;2024-03-02T02:42:12;9.30;99.90
28244;DHT22;15510;52.512;13.300;2024-03-02T02:44:38;9.30;99.90
28244;DHT22;15510;52.512;13.300;2024-03-02T02:47:03;9.30;99.90
28244;DHT22;15510;52.512;13.300;2024-03-02T02:49:29;9.40;99.90
28244;DHT22;15510;52.512;13.300;2024-03-02T02:51:55;9.40;99.90
28244;DHT22;15510;52.512;13.300;2024-03-02T02:54:20;9.40;99.90
28244;DHT22;15510;52.512;13.300;2024-03-02T02:56:46;9.40;99.90
28244;DHT22;15510;52.512;13.300;2024-03-02T02:59:12;9.50;99.90
28244;DHT22;15510;52.512;13.300;2024-03-02T03:01:37;9.50;99.90
28244;DHT22;15510;52.512;13.300;2024-03-02T03:04:03;9.50;99.90
28244;DHT22;15510;52.512;13.300;2024-03-02T03:06:29;9.50;99.90
28244;DHT22;15510;52.512;13.300;2024-03-02T03:08:54;9.60;99.90
28244;DHT22;15510;52.512;13.300;2024-03-02T03:11:20;9.50;99.90
28244;DHT22;15510;52.512;13.300;2024-03-02T03:13:48;9.60;99.90
28244;DHT22;15510;52.512;13.300;2024-03-02T03:16:14;9.70;99.90
28244;DHT22;15510;52.512;13.300;2024-03-02T03:18:40;9.70;99.90
28244;DHT22;15510;52.512;13.300;2024-03-02T03:21:05;9.70;99.90
28244;DHT22;15510;52.512;13.300;2024-03-02T03:23:31;9.70;99.90
28244;DHT22;15510;52.512;13.300;2024-03-02T03:25:57;9.70;99.90
28244;DHT22;15510;52.512;13.300;2024-03-02T03:28:22;9.70;99.90
28244;DHT22;15510;52.512;13.300;2024-03-02T03:30:48;9.70;99.90
28244;DHT22;15510;52.512;13.300;2024-03-02T03:33:14;9.70;99.90
28244;DHT22;15510;52.512;13.300;2024-03-02T03:35:40;9.70;99.90
28244;DHT22;15510;52.512;13.300;2024-03-02T03:38:05;9.70;99.90
28244;DHT22;15510;52.512;13.300;2024-03-02T03:40:31;9.70;99.90
28244;DHT22;15510;52.512;13.300;2024-03-02T03:42:57;9.70;99.90
28244;DHT22;15510;52.512;13.300;2024-03-02T03:45:23;9.70;99.90
28244;DHT22;15510;52.512;13.300;2024-03-02T03:47:51;9.70;99.90
28244;DHT22;15510;52.512;13.300;2024-03-02T03:50:17;9.70;99.90
28244;DHT22;15510;52.512;13.300;2024-03-02T03:52:43;9.70;99.90
28244;DHT22;15510;52.512;13.300;2024-03-02T03:55:09;9.70;99.90
28244;DHT22;15510;52.512;13.300;2024-03-02T03:57:35;9.70;99.90
28244;DHT22;15510;52.512;13.300;2024-03-02T04:00:01;9.70;99.90
28244;DHT22;15510;52.512;13.300;2024-03-02T04:02:37;9.60;99.90
28244;DHT22;15510;52.512;13.300;2024-03-02T04:05:03;9.70;99.90
28244;DHT22;15510;52.512;13.300;2024-03-02T04:07:35;9.70;99.90
28244;DHT22;15510;52.512;13.300;2024-03-02T04:10:06;9.70;99.90
28244;DHT22;15510;52.512;13.300;2024-03-02T04:12:34;9.80;99.90
28244;DHT22;15510;52.512;13.300;2024-03-02T04:15:00;9.80;99.90
28244;DHT22;15510;52.512;13.300;2024-03-02T04:17:27;9.80;99.90
28244;DHT22;15510;52.512;13.300;2024-03-02T04:19:53;9.80;99.90
28244;DHT22;15510;52.512;13.300;2024-03-02T04:22:18;9.80;99.90
28244;DHT22;15510;52.512;13.300;2024-03-02T04:24:44;9.80;99.90
28244;DHT22;15510;52.512;13.300;2024-03-02T04:27:10;9.80;99.90
28244;DHT22;15510;52.512;13.300;2024-03-02T04:29:35;9.90;99.90
28244;DHT22;15510;52.512;13.300;2024-03-02T04:32:01;9.90;99.90
28244;DHT22;15510;52.512;13.300;2024-03-02T04:34:27;9.90;99.90
28244;DHT22;15510;52.512;13.300;2024-03-02T04:36:52;9.90;99.90
28244;DHT22;15510;52.512;13.300;2024-03-02T04:39:18;9.90;99.90
28244;DHT22;15510;52.512;13.300;2024-03-02T04:41:44;9.90;99.90
28244;DHT22;15510;52.512;13.300;2024-03-02T04:44:09;9.90;99.90
28244;DHT22;15510;52.512;13.300;2024-03-02T04:46:35;9.90;99.90
28244;DHT22;15510;52.512;13.300;2024-03-02T04:49:01;9.90;99.90
28244;DHT22;15510;52.512;13.300;2024-03-02T04:51:26;9.90;99.90
28244;DHT22;15510;52.512;13.300;2024-03-02T04:53:52;10.00;99.90
28244;DHT22;15510;52.512;13.300;2024-03-02T04:56:18;10.00;99.90
28244;DHT22;15510;52.512;13.300;2024-03-02T04:59:03;10.00;99.90
28244;DHT22;15510;52.512;13.300;2024-03-02T05:01:28;10.00;99.90
28244;DHT22;15510;52.512;13.300;2024-03-02T05:03:54;10.00;99.90
28244;DHT22;15510;52.512;13.300;2024-03-02T05:06:20;10.00;99.90
28244;DHT22;15510;52.512;13.300;2024-03-02T05:08:46;10.10;99.90
28244;DHT22;15510;52.512;13.300;2024-03-02T05:11:13;10.10;99.90
28244;DHT22;15510;52.512;13.300;2024-03-02T05:14:05;10.10;99.90
28244;DHT22;15510;52.512;13.300;2024-03-02T05:16:37;10.00;99.90
28244;DHT22;15510;52.512;13.300;2024-03-02T05:19:07;10.00;99.90
28244;DHT22;15510;52.512;13.300;2024-03-02T05:21:34;10.00;99.90
28244;DHT22;15510;52.512;13.300;2024-03-02T05:24:00;10.00;99.90
28244;DHT22;15510;52.512;13.300;2024-03-02T05:26:26;10.00;99.90
28244;DHT22;15510;52.512;13.300;2024-03-02T05:28:52;9.90;99.90
28244;DHT22;15510;52.512;13.300;2024-03-02T05:31:18;9.90;99.90
28244;DHT22;15510;52.512;13.300;2024-03-02T05:33:44;9.90;99.90
28244;DHT22;15510;52.512;13.300;2024-03-02T05:36:10;9.90;99.90
28244;DHT22;15510;52.512;13.300;2024-03-02T05:38:36;9.80;99.90
28244;DHT22;15510;52.512;13.300;2024-03-02T05:41:02;9.80;99.90
28244;DHT22;15510;52.512;13.300;2024-03-02T05:43:28;9.80;99.90
28244;DHT22;15510;52.512;13.300;2024-03-02T05:45:54;9.80;99.90
28244;DHT22;15510;52.512;13.300;2024-03-02T05:48:22;9.80;99.90
28244;DHT22;15510;52.512;13.300;2024-03-02T05:50:48;9.80;99.90
28244;DHT22;15510;52.512;13.300;2024-03-02T05:53:14;9.80;99.90
28244;DHT22;15510;52.512;13.300;2024-03-02T05:55:43;9.80;99.90
28244;DHT22;15510;52.512;13.300;2024-03-02T05:58:10;9.90;99.90
28244;DHT22;15510;52.512;13.300;2024-03-02T06:00:48;9.80;99.90
28244;DHT22;15510;52.512;13.300;2024-03-02T06:03:13;9.80;99.90
28244;DHT22;15510;52.512;13.300;2024-03-02T06:05:41;9.80;99.90
28244;DHT22;15510;52.512;13.300;2024-03-02T06:08:07;9.80;99.90
28244;DHT22;15510;52.512;13.300;2024-03-02T06:10:33;9.70;99.90
28244;DHT22;15510;52.512;13.300;2024-03-02T06:12:59;9.80;99.90
28244;DHT22;15510;52.512;13.300;2024-03-02T06:15:25;9.80;99.90
28244;DHT22;15510;52.512;13.300;2024-03-02T06:17:51;9.80;99.90
28244;DHT22;15510;52.512;13.300;2024-03-02T06:20:16;9.80;99.90
28244;DHT22;15510;52.512;13.300;2024-03-02T06:22:42;9.70;99.90
28244;DHT22;15510;52.512;13.300;2024-03-02T06:25:08;9.70;99.90
28244;DHT22;15510;52.512;13.300;2024-03-02T06:27:34;9.70;99.90
28244;DHT22;15510;52.512;13.300;2024-03-02T06:29:59;9.70;99.90
28244;DHT22;15510;52.512;13.300;2024-03-02T06:32:25;9.70;99.90
28244;DHT22;15510;52.512;13.300;2024-03-02T06:34:51;9.80;99.90
28244;DHT22;15510;52.512;13.300;2024-03-02T06:37:17;9.80;99.90
28244;DHT22;15510;52.512;13.300;2024-03-02T06:39:43;9.80;99.90
28244;DHT22;15510;52.512;13.300;2024-03-02T06:42:09;9.80;99.90
28244;DHT22;15510;52.512;13.300;2024-03-02T06:44:35;9.80;99.90
28244;DHT22;15510;52.512;13.300;2024-03-02T06:47:00;9.80;99.90
28244;DHT22;15510;52.512;13.300;2024-03-02T06:49:26;9.70;99.90
28244;DHT22;15510;52.512;13.300;2024-03-02T06:51:52;9.70;99.90
28244;DHT22;15510;52.512;13.300;2024-03-02T06:54:20;9.70;99.90
28244;DHT22;15510;52.512;13.300;2024-03-02T06:56:45;9.70;99.90
28244;DHT22;15510;52.512;13.300;2024-03-02T06:59:12;9.60;99.90
28244;DHT22;15510;52.512;13.300;2024-03-02T07:01:37;9.70;99.90
28244;DHT22;15510;52.512;13.300;2024-03-02T07:04:03;9.70;99.90
28244;DHT22;15510;52.512;13.300;2024-03-02T07:06:32;9.70;99.90
28244;DHT22;15510;52.512;13.300;2024-03-02T07:08:57;9.70;99.90
28244;DHT22;15510;52.512;13.300;2024-03-02T07:11:23;9.80;99.90
28244;DHT22;15510;52.512;13.300;2024-03-02T07:13:49;9.90;99.90
28244;DHT22;15510;52.512;13.300;2024-03-02T07:16:15;9.90;99.90
28244;DHT22;15510;52.512;13.300;2024-03-02T07:18:46;9.90;99.90
28244;DHT22;15510;52.512;13.300;2024-03-02T07:21:17;10.00;99.90
28244;DHT22;15510;52.512;13.300;2024-03-02T07:23:43;10.00;99.90
28244;DHT22;15510;52.512;13.300;2024-03-02T07:26:09;10.00;99.90
28244;DHT22;15510;52.512;13.300;2024-03-02T07:28:35;10.00;99.90
28244;DHT22;15510;52.512;13.300;2024-03-02T07:33:31;10.10;99.90
28244;DHT22;15510;52.512;13.300;2024-03-02T07:36:00;10.00;99.90
28244;DHT22;15510;52.512;13.300;2024-03-02T07:38:29;10.00;99.90
28244;DHT22;15510;52.512;13.300;2024-03-02T07:40:55;10.00;99.90
28244;DHT22;15510;52.512;13.300;2024-03-02T07:43:22;9.90;99.90
28244;DHT22;15510;52.512;13.300;2024-03-02T07:45:48;9.90;99.90
28244;DHT22;15510;52.512;13.300;2024-03-02T07:48:16;9.90;99.90
28244;DHT22;15510;52.512;13.300;2024-03-02T07:50:42;9.90;99.90
28244;DHT22;15510;52.512;13.300;2024-03-02T07:53:11;9.90;99.90
28244;DHT22;15510;52.512;13.300;2024-03-02T07:55:37;10.00;99.90
28244;DHT22;15510;52.512;13.300;2024-03-02T07:58:03;10.00;99.90
28244;DHT22;15510;52.512;13.300;2024-03-02T08:00:28;10.10;99.90
28244;DHT22;15510;52.512;13.300;2024-03-02T08:02:57;10.10;99.90
28244;DHT22;15510;52.512;13.300;2024-03-02T08:05:29;10.00;99.90
28244;DHT22;15510;52.512;13.300;2024-03-02T08:07:55;10.10;99.90
28244;DHT22;15510;52.512;13.300;2024-03-02T08:10:27;10.10;99.90
28244;DHT22;15510;52.512;13.300;2024-03-02T08:12:58;10.10;99.90
28244;DHT22;15510;52.512;13.300;2024-03-02T08:15:24;10.10;99.90
28244;DHT22;15510;52.512;13.300;2024-03-02T08:17:53;10.10;99.90
28244;DHT22;15510;52.512;13.300;2024-03-02T08:20:19;10.10;99.90
28244;DHT22;15510;52.512;13.300;2024-03-02T08:22:45;10.00;99.90
28244;DHT22;15510;52.512;13.300;2024-03-02T08:25:11;10.10;99.90
28244;DHT22;15510;52.512;13.300;2024-03-02T08:27:39;10.00;99.90
28244;DHT22;15510;52.512;13.300;2024-03-02T08:30:06;10.00;99.90
28244;DHT22;15510;52.512;13.300;2024-03-02T08:32:35;10.00;99.90
28244;DHT22;15510;52.512;13.300;2024-03-02T08:35:01;10.00;99.90
28244;DHT22;15510;52.512;13.300;2024-03-02T08:37:27;10.00;99.90
28244;DHT22;15510;52.512;13.300;2024-03-02T08:39:53;10.00;99.90
28244;DHT22;15510;52.512;13.300;2024-03-02T08:42:19;10.00;99.90
28244;DHT22;15510;52.512;13.300;2024-03-02T08:44:45;10.00;99.90
28244;DHT22;15510;52.512;13.300;2024-03-02T08:47:11;10.00;99.90
28244;DHT22;15510;52.512;13.300;2024-03-02T08:49:36;10.00;99.90
28244;DHT22;15510;52.512;13.300;2024-03-02T08:52:02;10.10;99.90
28244;DHT22;15510;52.512;13.300;2024-03-02T08:54:32;10.10;99.90
28244;DHT22;15510;52.512;13.300;2024-03-02T08:56:59;10.10;99.90
28244;DHT22;15510;52.512;13.300;2024-03-02T08:59:25;10.20;99.90
28244;DHT22;15510;52.512;13.300;2024-03-02T09:01:53;10.20;99.90
28244;DHT22;15510;52.512;13.300;2024-03-02T09:04:19;10.20;99.90
28244;DHT22;15510;52.512;13.300;2024-03-02T09:06:45;10.20;99.90
28244;DHT22;15510;52.512;13.300;2024-03-02T09:09:10;10.30;99.90
28244;DHT22;15510;52.512;13.300;2024-03-02T09:11:36;10.20;99.90
28244;DHT22;15510;52.512;13.300;2024-03-02T09:14:10;10.20;99.90
28244;DHT22;15510;52.512;13.300;2024-03-02T09:16:36;10.20;99.90
28244;DHT22;15510;52.512;13.300;2024-03-02T09:19:02;10.20;99.90
28244;DHT22;15510;52.512;13.300;2024-03-02T09:21:33;10.30;99.90
28244;DHT22;15510;52.512;13.300;2024-03-02T09:24:01;10.30;99.90
28244;DHT22;15510;52.512;13.300;2024-03-02T09:26:28;10.30;99.90
28244;DHT22;15510;52.512;13.300;2024-03-02T09:28:54;10.30;99.90
28244;DHT22;15510;52.512;13.300;2024-03-02T09:31:20;10.30;99.90
28244;DHT22;15510;52.512;13.300;2024-03-02T09:33:46;10.20;99.90
28244;DHT22;15510;52.512;13.300;2024-03-02T09:36:19;10.30;99.90
28244;DHT22;15510;52.512;13.300;2024-03-02T09:38:45;10.30;99.90
28244;DHT22;15510;52.512;13.300;2024-03-02T09:41:15;10.40;99.90
28244;DHT22;15510;52.512;13.300;2024-03-02T09:43:41;10.40;99.90
28244;DHT22;15510;52.512;13.300;2024-03-02T09:46:09;10.30;99.90
28244;DHT22;15510;52.512;13.300;2024-03-02T09:48:35;10.40;99.90
28244;DHT22;15510;52.512;13.300;2024-03-02T09:51:01;10.50;99.90
28244;DHT22;15510;52.512;13.300;2024-03-02T09:53:33;10.60;99.90
28244;DHT22;15510;52.512;13.300;2024-03-02T09:56:00;10.70;99.90
28244;DHT22;15510;52.512;13.300;2024-03-02T09:58:26;10.80;99.90
28244;DHT22;15510;52.512;13.300;2024-03-02T10:00:52;10.80;99.90
28244;DHT22;15510;52.512;13.300;2024-03-02T10:03:19;10.80;99.90
28244;DHT22;15510;52.512;13.300;2024-03-02T10:05:45;10.90;99.90
28244;DHT22;15510;52.512;13.300;2024-03-02T10:08:10;10.90;99.90
28244;DHT22;15510;52.512;13.300;2024-03-02T10:10:40;11.00;99.90
28244;DHT22;15510;52.512;13.300;2024-03-02T10:13:09;11.10;99.90
28244;DHT22;15510;52.512;13.300;2024-03-02T10:15:37;11.20;99.90
28244;DHT22;15510;52.512;13.300;2024-03-02T10:18:05;11.30;99.90
28244;DHT22;15510;52.512;13.300;2024-03-02T10:20:30;11.40;99.90
28244;DHT22;15510;52.512;13.300;2024-03-02T10:23:15;11.50;99.90
28244;DHT22;15510;52.512;13.300;2024-03-02T10:25:43;11.50;99.90
28244;DHT22;15510;52.512;13.300;2024-03-02T10:28:09;11.50;99.90
28244;DHT22;15510;52.512;13.300;2024-03-02T10:30:35;11.50;99.90
28244;DHT22;15510;52.512;13.300;2024-03-02T10:33:02;11.60;99.90
28244;DHT22;15510;52.512;13.300;2024-03-02T10:35:28;11.70;99.90
28244;DHT22;15510;52.512;13.300;2024-03-02T10:37:58;11.70;99.90
28244;DHT22;15510;52.512;13.300;2024-03-02T10:40:24;11.80;99.90
28244;DHT22;15510;52.512;13.300;2024-03-02T10:42:50;11.80;99.90
28244;DHT22;15510;52.512;13.300;2024-03-02T10:45:20;11.80;99.90
28244;DHT22;15510;52.512;13.300;2024-03-02T10:47:50;11.80;99.90
28244;DHT22;15510;52.512;13.300;2024-03-02T10:50:16;11.80;99.90
28244;DHT22;15510;52.512;13.300;2024-03-02T10:52:43;11.80;99.90
28244;DHT22;15510;52.512;13.300;2024-03-02T10:55:11;11.80;99.90
28244;DHT22;15510;52.512;13.300;2024-03-02T10:57:52;11.80;99.90
28244;DHT22;15510;52.512;13.300;2024-03-02T11:00:19;11.80;99.90
28244;DHT22;15510;52.512;13.300;2024-03-02T11:02:52;11.80;99.90
28244;DHT22;15510;52.512;13.300;2024-03-02T11:05:31;11.80;99.90
28244;DHT22;15510;52.512;13.300;2024-03-02T11:08:06;11.80;99.90
28244;DHT22;15510;52.512;13.300;2024-03-02T11:10:36;12.00;99.90
28244;DHT22;15510;52.512;13.300;2024-03-02T11:13:07;12.10;99.90
28244;DHT22;15510;52.512;13.300;2024-03-02T11:15:35;12.20;99.90
28244;DHT22;15510;52.512;13.300;2024-03-02T11:18:05;12.20;99.90
28244;DHT22;15510;52.512;13.300;2024-03-02T11:20:41;12.20;99.90
28244;DHT22;15510;52.512;13.300;2024-03-02T11:23:08;12.30;99.90
28244;DHT22;15510;52.512;13.300;2024-03-02T11:25:34;12.30;99.90
28244;DHT22;15510;52.512;13.300;2024-03-02T11:28:05;12.50;99.90
28244;DHT22;15510;52.512;13.300;2024-03-02T11:33:07;12.60;99.90
28244;DHT22;15510;52.512;13.300;2024-03-02T11:35:36;12.70;99.90
28244;DHT22;15510;52.512;13.300;2024-03-02T11:38:07;12.80;99.90
28244;DHT22;15510;52.512;13.300;2024-03-02T11:40:32;12.90;99.90
28244;DHT22;15510;52.512;13.300;2024-03-02T11:43:01;13.00;99.90
28244;DHT22;15510;52.512;13.300;2024-03-02T11:45:28;12.90;99.90
28244;DHT22;15510;52.512;13.300;2024-03-02T11:47:55;13.00;99.90
28244;DHT22;15510;52.512;13.300;2024-03-02T11:50:33;13.10;99.90
28244;DHT22;15510;52.512;13.300;2024-03-02T11:53:00;13.20;99.90
28244;DHT22;15510;52.512;13.300;2024-03-02T11:55:26;13.30;99.90
28244;DHT22;15510;52.512;13.300;2024-03-02T11:57:55;13.30;99.90
28244;DHT22;15510;52.512;13.300;2024-03-02T12:00:21;13.30;99.90
28244;DHT22;15510;52.512;13.300;2024-03-02T12:03:08;13.30;99.90
28244;DHT22;15510;52.512;13.300;2024-03-02T12:05:34;13.30;99.90
28244;DHT22;15510;52.512;13.300;2024-03-02T12:08:02;13.30;99.90
28244;DHT22;15510;52.512;13.300;2024-03-02T12:10:29;13.20;99.90
28244;DHT22;15510;52.512;13.300;2024-03-02T12:13:03;13.40;99.90
28244;DHT22;15510;52.512;13.300;2024-03-02T12:15:31;13.40;99.90
28244;DHT22;15510;52.512;13.300;2024-03-02T12:18:01;13.50;99.90
28244;DHT22;15510;52.512;13.300;2024-03-02T12:20:28;13.60;99.90
28244;DHT22;15510;52.512;13.300;2024-03-02T12:22:57;13.70;99.90
28244;DHT22;15510;52.512;13.300;2024-03-02T12:25:24;13.70;99.90
28244;DHT22;15510;52.512;13.300;2024-03-02T12:27:56;13.70;99.90
28244;DHT22;15510;52.512;13.300;2024-03-02T12:30:22;13.70;99.90
28244;DHT22;15510;52.512;13.300;2024-03-02T12:32:50;13.80;99.90
28244;DHT22;15510;52.512;13.300;2024-03-02T12:35:18;14.00;99.90
28244;DHT22;15510;52.512;13.300;2024-03-02T12:37:48;14.30;99.90
28244;DHT22;15510;52.512;13.300;2024-03-02T12:40:15;14.60;99.90
28244;DHT22;15510;52.512;13.300;2024-03-02T12:42:43;15.00;99.90
28244;DHT22;15510;52.512;13.300;2024-03-02T12:45:09;15.20;99.90
28244;DHT22;15510;52.512;13.300;2024-03-02T12:47:38;15.40;99.90
28244;DHT22;15510;52.512;13.300;2024-03-02T12:50:05;15.60;99.90
28244;DHT22;15510;52.512;13.300;2024-03-02T12:52:31;15.70;99.90
28244;DHT22;15510;52.512;13.300;2024-03-02T12:55:03;15.80;99.90
28244;DHT22;15510;52.512;13.300;2024-03-02T12:57:33;15.70;99.90
28244;DHT22;15510;52.512;13.300;2024-03-02T13:00:00;15.60;99.90
28244;DHT22;15510;52.512;13.300;2024-03-02T13:02:30;15.60;99.90
28244;DHT22;15510;52.512;13.300;2024-03-02T13:04:58;15.60;99.90
28244;DHT22;15510;52.512;13.300;2024-03-02T13:07:24;15.70;99.90
28244;DHT22;15510;52.512;13.300;2024-03-02T13:09:51;15.80;99.90
28244;DHT22;15510;52.512;13.300;2024-03-02T13:12:19;15.80;99.90
28244;DHT22;15510;52.512;13.300;2024-03-02T13:14:52;15.80;99.90
28244;DHT22;15510;52.512;13.300;2024-03-02T13:17:18;15.90;99.90
28244;DHT22;15510;52.512;13.300;2024-03-02T13:19:57;16.00;99.90
28244;DHT22;15510;52.512;13.300;2024-03-02T13:22:24;16.10;99.90
28244;DHT22;15510;52.512;13.300;2024-03-02T13:24:56;16.00;99.90
28244;DHT22;15510;52.512;13.300;2024-03-02T13:27:22;15.80;99.90
28244;DHT22;15510;52.512;13.300;2024-03-02T13:29:48;15.70;99.90
28244;DHT22;15510;52.512;13.300;2024-03-02T13:32:14;15.50;99.90
28244;DHT22;15510;52.512;13.300;2024-03-02T13:34:40;15.40;99.90
28244;DHT22;15510;52.512;13.300;2024-03-02T13:37:06;15.20;99.90
28244;DHT22;15510;52.512;13.300;2024-03-02T13:39:35;15.20;99.90
28244;DHT22;15510;52.512;13.300;2024-03-02T13:42:09;15.10;99.90
28244;DHT22;15510;52.512;13.300;2024-03-02T13:44:36;15.00;99.90
28244;DHT22;15510;52.512;13.300;2024-03-02T13:47:03;15.00;99.90
28244;DHT22;15510;52.512;13.300;2024-03-02T13:49:29;15.00;99.90
28244;DHT22;15510;52.512;13.300;2024-03-02T13:52:05;15.00;99.90
28244;DHT22;15510;52.512;13.300;2024-03-02T13:54:40;15.00;99.90
28244;DHT22;15510;52.512;13.300;2024-03-02T13:57:07;15.00;99.90
28244;DHT22;15510;52.512;13.300;2024-03-02T13:59:37;15.00;99.90
28244;DHT22;15510;52.512;13.300;2024-03-02T14:02:03;15.00;99.90
28244;DHT22;15510;52.512;13.300;2024-03-02T14:04:36;15.00;99.90
28244;DHT22;15510;52.512;13.300;2024-03-02T14:07:02;15.10;99.90
28244;DHT22;15510;52.512;13.300;2024-03-02T14:09:29;15.10;99.90
28244;DHT22;15510;52.512;13.300;2024-03-02T14:11:56;15.10;99.90
28244;DHT22;15510;52.512;13.300;2024-03-02T14:14:22;15.00;99.90
28244;DHT22;15510;52.512;13.300;2024-03-02T14:16:48;14.90;99.90
28244;DHT22;15510;52.512;13.300;2024-03-02T14:19:14;14.90;99.90
28244;DHT22;15510;52.512;13.300;2024-03-02T14:21:40;14.80;99.90
28244;DHT22;15510;52.512;13.300;2024-03-02T14:24:06;14.70;99.90
28244;DHT22;15510;52.512;13.300;2024-03-02T14:26:35;14.70;99.90
28244;DHT22;15510;52.512;13.300;2024-03-02T14:29:05;14.60;99.90
28244;DHT22;15510;52.512;13.300;2024-03-02T14:31:31;14.60;99.90
28244;DHT22;15510;52.512;13.300;2024-03-02T14:33:57;14.60;99.90
28244;DHT22;15510;52.512;13.300;2024-03-02T14:36:23;14.60;99.90
28244;DHT22;15510;52.512;13.300;2024-03-02T14:38:49;14.50;99.90
28244;DHT22;15510;52.512;13.300;2024-03-02T14:41:15;14.50;99.90
28244;DHT22;15510;52.512;13.300;2024-03-02T14:43:41;14.40;99.90
28244;DHT22;15510;52.512;13.300;2024-03-02T14:46:07;14.40;99.90
28244;DHT22;15510;52.512;13.300;2024-03-02T14:48:36;14.30;99.90
28244;DHT22;15510;52.512;13.300;2024-03-02T14:51:04;14.20;99.90
28244;DHT22;15510;52.512;13.300;2024-03-02T14:53:33;14.10;99.90
28244;DHT22;15510;52.512;13.300;2024-03-02T14:55:59;14.00;99.90
28244;DHT22;15510;52.512;13.300;2024-03-02T14:58:24;13.90;99.90
28244;DHT22;15510;52.512;13.300;2024-03-02T15:00:51;13.90;99.90
28244;DHT22;15510;52.512;13.300;2024-03-02T15:03:17;13.90;99.90
28244;DHT22;15510;52.512;13.300;2024-03-02T15:05:43;13.90;99.90
28244;DHT22;15510;52.512;13.300;2024-03-02T15:08:10;13.80;99.90
28244;DHT22;15510;52.512;13.300;2024-03-02T15:10:36;13.70;99.90
28244;DHT22;15510;52.512;13.300;2024-03-02T15:13:02;13.70;99.90
28244;DHT22;15510;52.512;13.300;2024-03-02T15:15:28;13.70;99.90
28244;DHT22;15510;52.512;13.300;2024-03-02T15:17:54;13.70;99.90
28244;DHT22;15510;52.512;13.300;2024-03-02T15:20:20;13.80;99.90
28244;DHT22;15510;52.512;13.300;2024-03-02T15:22:47;13.80;99.90
28244;DHT22;15510;52.512;13.300;2024-03-02T15:25:13;13.80;99.90
28244;DHT22;15510;52.512;13.300;2024-03-02T15:27:38;13.80;99.90
28244;DHT22;15510;52.512;13.300;2024-03-02T15:30:06;13.90;99.90
28244;DHT22;15510;52.512;13.300;2024-03-02T15:32:32;13.90;99.90